sensor_id;sensor_type;location;lat;lon;timestamp;P1;durP1;ratioP1;P2;durP2;ratioP2
151;SDS011;68;48.792;9.164;2024-03-06T00:00:24;14.98;;;14.18;;
151;SDS011;68;48.792;9.164;2024-03-06T00:02:51;15.70;;;14.90;;
151;SDS011;68;48.792;9.164;2024-03-06T00:05:18;15.50;;;14.70;;
151;SDS011;68;48.792;9.164;2024-03-06T00:07:46;15.13;;;14.32;;
151;SDS011;68;48.792;9.164;2024-03-06T00:10:13;15.85;;;15.00;;
151;SDS011;68;48.792;9.164;2024-03-06T00:12:40;15.45;;;14.65;;
151;SDS011;68;48.792;9.164;2024-03-06T00:15:07;16.42;;;14.30;;
151;SDS011;68;48.792;9.164;2024-03-06T00:17:34;14.85;;;14.00;;
151;SDS011;68;48.792;9.164;2024-03-06T00:20:01;15.18;;;14.25;;
151;SDS011;68;48.792;9.164;2024-03-06T00:22:30;14.90;;;14.10;;
151;SDS011;68;48.792;9.164;2024-03-06T00:24:58;15.00;;;14.10;;
151;SDS011;68;48.792;9.164;2024-03-06T00:27:25;14.48;;;13.65;;
151;SDS011;68;48.792;9.164;2024-03-06T00:29:51;15.23;;;14.25;;
151;SDS011;68;48.792;9.164;2024-03-06T00:32:18;14.02;;;13.32;;
151;SDS011;68;48.792;9.164;2024-03-06T00:34:45;14.70;;;13.95;;
151;SDS011;68;48.792;9.164;2024-03-06T00:37:12;14.90;;;14.10;;
151;SDS011;68;48.792;9.164;2024-03-06T00:39:38;14.40;;;13.70;;
151;SDS011;68;48.792;9.164;2024-03-06T00:42:06;15.43;;;14.40;;
151;SDS011;68;48.792;9.164;2024-03-06T00:44:35;14.60;;;13.90;;
151;SDS011;68;48.792;9.164;2024-03-06T00:47:02;14.15;;;13.45;;
151;SDS011;68;48.792;9.164;2024-03-06T00:49:29;14.25;;;13.52;;
151;SDS011;68;48.792;9.164;2024-03-06T00:51:56;15.52;;;14.73;;
151;SDS011;68;48.792;9.164;2024-03-06T00:54:22;17.92;;;13.73;;
151;SDS011;68;48.792;9.164;2024-03-06T00:56:49;14.57;;;13.88;;
151;SDS011;68;48.792;9.164;2024-03-06T00:59:17;14.30;;;13.60;;
151;SDS011;68;48.792;9.164;2024-03-06T01:01:44;14.55;;;13.85;;
151;SDS011;68;48.792;9.164;2024-03-06T01:04:11;14.30;;;13.60;;
151;SDS011;68;48.792;9.164;2024-03-06T01:06:38;14.38;;;13.68;;
151;SDS011;68;48.792;9.164;2024-03-06T01:09:05;19.27;;;14.82;;
151;SDS011;68;48.792;9.164;2024-03-06T01:11:32;14.10;;;13.40;;
151;SDS011;68;48.792;9.164;2024-03-06T01:13:58;14.25;;;13.55;;
151;SDS011;68;48.792;9.164;2024-03-06T01:16:27;15.13;;;14.32;;
151;SDS011;68;48.792;9.164;2024-03-06T01:18:54;14.32;;;13.63;;
151;SDS011;68;48.792;9.164;2024-03-06T01:21:21;14.63;;;13.90;;
151;SDS011;68;48.792;9.164;2024-03-06T01:23:48;14.00;;;13.30;;
151;SDS011;68;48.792;9.164;2024-03-06T01:26:14;14.65;;;13.93;;
151;SDS011;68;48.792;9.164;2024-03-06T01:28:41;15.48;;;13.65;;
151;SDS011;68;48.792;9.164;2024-03-06T01:31:08;14.43;;;13.73;;
151;SDS011;68;48.792;9.164;2024-03-06T01:33:36;14.43;;;13.73;;
151;SDS011;68;48.792;9.164;2024-03-06T01:36:03;15.18;;;14.38;;
151;SDS011;68;48.792;9.164;2024-03-06T01:38:31;14.50;;;13.80;;
151;SDS011;68;48.792;9.164;2024-03-06T01:40:57;15.82;;;14.20;;
151;SDS011;68;48.792;9.164;2024-03-06T01:43:25;14.95;;;14.15;;
151;SDS011;68;48.792;9.164;2024-03-06T01:45:52;14.93;;;14.13;;
151;SDS011;68;48.792;9.164;2024-03-06T01:48:20;15.82;;;15.02;;
151;SDS011;68;48.792;9.164;2024-03-06T01:50:51;15.05;;;14.25;;
151;SDS011;68;48.792;9.164;2024-03-06T01:53:19;15.13;;;14.32;;
151;SDS011;68;48.792;9.164;2024-03-06T01:55:46;14.55;;;13.82;;
151;SDS011;68;48.792;9.164;2024-03-06T01:58:14;14.60;;;13.90;;
151;SDS011;68;48.792;9.164;2024-03-06T02:00:41;15.25;;;14.48;;
151;SDS011;68;48.792;9.164;2024-03-06T02:03:07;15.38;;;14.38;;
151;SDS011;68;48.792;9.164;2024-03-06T02:05:34;16.13;;;15.32;;
151;SDS011;68;48.792;9.164;2024-03-06T02:08:03;16.25;;;14.50;;
151;SDS011;68;48.792;9.164;2024-03-06T02:10:32;16.15;;;15.35;;
151;SDS011;68;48.792;9.164;2024-03-06T02:12:59;15.90;;;15.10;;
151;SDS011;68;48.792;9.164;2024-03-06T02:15:26;16.05;;;15.25;;
151;SDS011;68;48.792;9.164;2024-03-06T02:17:53;16.33;;;15.55;;
151;SDS011;68;48.792;9.164;2024-03-06T02:20:22;15.68;;;14.88;;
151;SDS011;68;48.792;9.164;2024-03-06T02:22:49;16.00;;;15.20;;
151;SDS011;68;48.792;9.164;2024-03-06T02:25:16;16.42;;;15.40;;
151;SDS011;68;48.792;9.164;2024-03-06T02:27:44;16.90;;;15.60;;
151;SDS011;68;48.792;9.164;2024-03-06T02:30:13;16.50;;;15.70;;
151;SDS011;68;48.792;9.164;2024-03-06T02:32:40;18.70;;;16.52;;
151;SDS011;68;48.792;9.164;2024-03-06T02:35:08;16.98;;;16.08;;
151;SDS011;68;48.792;9.164;2024-03-06T02:37:36;17.13;;;16.23;;
151;SDS011;68;48.792;9.164;2024-03-06T02:40:04;18.67;;;17.20;;
151;SDS011;68;48.792;9.164;2024-03-06T02:42:35;22.15;;;19.17;;
151;SDS011;68;48.792;9.164;2024-03-06T02:45:04;22.10;;;19.52;;
151;SDS011;68;48.792;9.164;2024-03-06T02:47:31;24.63;;;19.15;;
151;SDS011;68;48.792;9.164;2024-03-06T02:49:58;21.00;;;18.58;;
151;SDS011;68;48.792;9.164;2024-03-06T02:52:25;21.38;;;18.52;;
151;SDS011;68;48.792;9.164;2024-03-06T02:54:53;19.58;;;18.58;;
151;SDS011;68;48.792;9.164;2024-03-06T02:57:20;19.38;;;18.40;;
151;SDS011;68;48.792;9.164;2024-03-06T02:59:47;19.55;;;17.90;;
151;SDS011;68;48.792;9.164;2024-03-06T03:02:13;19.02;;;18.05;;
151;SDS011;68;48.792;9.164;2024-03-06T03:04:40;18.90;;;17.95;;
151;SDS011;68;48.792;9.164;2024-03-06T03:07:07;17.73;;;16.83;;
151;SDS011;68;48.792;9.164;2024-03-06T03:09:35;18.48;;;17.58;;
151;SDS011;68;48.792;9.164;2024-03-06T03:12:04;18.75;;;17.50;;
151;SDS011;68;48.792;9.164;2024-03-06T03:14:31;20.02;;;17.30;;
151;SDS011;68;48.792;9.164;2024-03-06T03:16:58;19.17;;;17.70;;
151;SDS011;68;48.792;9.164;2024-03-06T03:19:26;20.13;;;18.40;;
151;SDS011;68;48.792;9.164;2024-03-06T03:21:52;17.80;;;16.90;;
151;SDS011;68;48.792;9.164;2024-03-06T03:24:19;18.30;;;17.40;;
151;SDS011;68;48.792;9.164;2024-03-06T03:26:46;18.70;;;17.80;;
151;SDS011;68;48.792;9.164;2024-03-06T03:29:14;17.88;;;16.98;;
151;SDS011;68;48.792;9.164;2024-03-06T03:31:41;19.13;;;18.13;;
151;SDS011;68;48.792;9.164;2024-03-06T03:34:08;18.23;;;16.67;;
151;SDS011;68;48.792;9.164;2024-03-06T03:36:39;18.45;;;17.20;;
151;SDS011;68;48.792;9.164;2024-03-06T03:39:06;18.52;;;17.63;;
151;SDS011;68;48.792;9.164;2024-03-06T03:41:38;17.30;;;16.40;;
151;SDS011;68;48.792;9.164;2024-03-06T03:44:08;18.00;;;17.10;;
151;SDS011;68;48.792;9.164;2024-03-06T03:46:36;18.02;;;17.13;;
151;SDS011;68;48.792;9.164;2024-03-06T03:49:03;18.27;;;17.38;;
151;SDS011;68;48.792;9.164;2024-03-06T03:51:30;19.35;;;18.35;;
151;SDS011;68;48.792;9.164;2024-03-06T03:53:57;18.00;;;17.10;;
151;SDS011;68;48.792;9.164;2024-03-06T03:56:24;18.83;;;17.90;;
151;SDS011;68;48.792;9.164;2024-03-06T03:58:51;18.58;;;17.67;;
151;SDS011;68;48.792;9.164;2024-03-06T04:01:17;18.70;;;17.75;;
151;SDS011;68;48.792;9.164;2024-03-06T04:03:45;19.65;;;18.65;;
151;SDS011;68;48.792;9.164;2024-03-06T04:06:13;19.83;;;18.83;;
151;SDS011;68;48.792;9.164;2024-03-06T04:08:40;19.40;;;18.40;;
151;SDS011;68;48.792;9.164;2024-03-06T04:11:07;21.00;;;19.95;;
151;SDS011;68;48.792;9.164;2024-03-06T04:13:34;28.38;;;19.98;;
151;SDS011;68;48.792;9.164;2024-03-06T04:16:02;20.48;;;19.48;;
151;SDS011;68;48.792;9.164;2024-03-06T04:18:30;19.73;;;18.73;;
151;SDS011;68;48.792;9.164;2024-03-06T04:21:00;19.83;;;18.83;;
151;SDS011;68;48.792;9.164;2024-03-06T04:23:30;21.60;;;18.80;;
151;SDS011;68;48.792;9.164;2024-03-06T04:25:57;20.50;;;19.50;;
151;SDS011;68;48.792;9.164;2024-03-06T04:28:24;19.70;;;18.70;;
151;SDS011;68;48.792;9.164;2024-03-06T04:30:51;22.60;;;18.98;;
151;SDS011;68;48.792;9.164;2024-03-06T04:33:18;22.02;;;18.15;;
151;SDS011;68;48.792;9.164;2024-03-06T04:35:45;24.25;;;19.10;;
151;SDS011;68;48.792;9.164;2024-03-06T04:38:13;19.65;;;18.10;;
151;SDS011;68;48.792;9.164;2024-03-06T04:40:40;21.70;;;18.80;;
151;SDS011;68;48.792;9.164;2024-03-06T04:43:07;22.13;;;18.90;;
151;SDS011;68;48.792;9.164;2024-03-06T04:45:34;19.30;;;18.30;;
151;SDS011;68;48.792;9.164;2024-03-06T04:48:01;20.40;;;19.02;;
151;SDS011;68;48.792;9.164;2024-03-06T04:50:27;20.50;;;19.50;;
151;SDS011;68;48.792;9.164;2024-03-06T04:52:54;20.70;;;19.70;;
151;SDS011;68;48.792;9.164;2024-03-06T04:55:23;20.30;;;19.30;;
151;SDS011;68;48.792;9.164;2024-03-06T04:57:51;20.20;;;19.20;;
151;SDS011;68;48.792;9.164;2024-03-06T05:00:18;20.65;;;19.65;;
151;SDS011;68;48.792;9.164;2024-03-06T05:02:45;19.40;;;18.42;;
151;SDS011;68;48.792;9.164;2024-03-06T05:05:14;20.88;;;18.85;;
151;SDS011;68;48.792;9.164;2024-03-06T05:07:41;19.30;;;18.30;;
151;SDS011;68;48.792;9.164;2024-03-06T05:10:08;19.83;;;18.83;;
151;SDS011;68;48.792;9.164;2024-03-06T05:12:36;18.45;;;17.55;;
151;SDS011;68;48.792;9.164;2024-03-06T05:15:03;19.27;;;18.27;;
151;SDS011;68;48.792;9.164;2024-03-06T05:17:31;20.60;;;19.60;;
151;SDS011;68;48.792;9.164;2024-03-06T05:19:58;20.95;;;18.67;;
151;SDS011;68;48.792;9.164;2024-03-06T05:22:25;23.38;;;20.02;;
151;SDS011;68;48.792;9.164;2024-03-06T05:24:52;21.20;;;20.10;;
151;SDS011;68;48.792;9.164;2024-03-06T05:27:20;21.55;;;19.58;;
151;SDS011;68;48.792;9.164;2024-03-06T05:29:48;20.38;;;19.27;;
151;SDS011;68;48.792;9.164;2024-03-06T05:32:14;21.77;;;19.88;;
151;SDS011;68;48.792;9.164;2024-03-06T05:34:41;21.10;;;20.00;;
151;SDS011;68;48.792;9.164;2024-03-06T05:37:08;26.65;;;20.45;;
151;SDS011;68;48.792;9.164;2024-03-06T05:39:35;20.95;;;19.92;;
151;SDS011;68;48.792;9.164;2024-03-06T05:42:03;20.63;;;19.63;;
151;SDS011;68;48.792;9.164;2024-03-06T05:44:30;23.05;;;21.17;;
151;SDS011;68;48.792;9.164;2024-03-06T05:46:59;20.95;;;19.88;;
151;SDS011;68;48.792;9.164;2024-03-06T05:49:27;21.02;;;19.98;;
151;SDS011;68;48.792;9.164;2024-03-06T05:51:54;23.23;;;20.90;;
151;SDS011;68;48.792;9.164;2024-03-06T05:54:21;22.15;;;21.05;;
151;SDS011;68;48.792;9.164;2024-03-06T05:56:49;22.65;;;20.58;;
151;SDS011;68;48.792;9.164;2024-03-06T05:59:18;27.55;;;21.92;;
151;SDS011;68;48.792;9.164;2024-03-06T06:01:45;23.05;;;21.38;;
151;SDS011;68;48.792;9.164;2024-03-06T06:04:13;27.52;;;20.88;;
151;SDS011;68;48.792;9.164;2024-03-06T06:06:40;24.00;;;21.63;;
151;SDS011;68;48.792;9.164;2024-03-06T06:09:07;23.33;;;21.23;;
151;SDS011;68;48.792;9.164;2024-03-06T06:11:38;23.58;;;22.38;;
151;SDS011;68;48.792;9.164;2024-03-06T06:14:05;24.48;;;21.83;;
151;SDS011;68;48.792;9.164;2024-03-06T06:16:35;24.15;;;21.80;;
151;SDS011;68;48.792;9.164;2024-03-06T06:19:03;22.45;;;20.67;;
151;SDS011;68;48.792;9.164;2024-03-06T06:21:32;22.55;;;21.00;;
151;SDS011;68;48.792;9.164;2024-03-06T06:24:00;26.27;;;21.83;;
151;SDS011;68;48.792;9.164;2024-03-06T06:26:28;22.90;;;21.80;;
151;SDS011;68;48.792;9.164;2024-03-06T06:28:55;26.92;;;22.10;;
151;SDS011;68;48.792;9.164;2024-03-06T06:31:22;27.30;;;21.98;;
151;SDS011;68;48.792;9.164;2024-03-06T06:33:50;24.73;;;21.58;;
151;SDS011;68;48.792;9.164;2024-03-06T06:36:17;23.13;;;21.10;;
151;SDS011;68;48.792;9.164;2024-03-06T06:38:45;23.27;;;21.05;;
151;SDS011;68;48.792;9.164;2024-03-06T06:41:13;28.13;;;21.70;;
151;SDS011;68;48.792;9.164;2024-03-06T06:43:40;23.25;;;21.00;;
151;SDS011;68;48.792;9.164;2024-03-06T06:46:06;24.50;;;22.35;;
151;SDS011;68;48.792;9.164;2024-03-06T06:48:33;26.02;;;22.10;;
151;SDS011;68;48.792;9.164;2024-03-06T06:51:00;22.40;;;21.30;;
151;SDS011;68;48.792;9.164;2024-03-06T06:53:27;28.02;;;23.17;;
151;SDS011;68;48.792;9.164;2024-03-06T06:55:56;25.58;;;22.30;;
151;SDS011;68;48.792;9.164;2024-03-06T06:58:23;24.75;;;22.15;;
151;SDS011;68;48.792;9.164;2024-03-06T07:00:51;26.15;;;21.85;;
151;SDS011;68;48.792;9.164;2024-03-06T07:03:18;33.45;;;23.38;;
151;SDS011;68;48.792;9.164;2024-03-06T07:05:46;27.38;;;23.38;;
151;SDS011;68;48.792;9.164;2024-03-06T07:08:13;25.35;;;22.10;;
151;SDS011;68;48.792;9.164;2024-03-06T07:10:40;23.15;;;21.75;;
151;SDS011;68;48.792;9.164;2024-03-06T07:13:08;25.60;;;22.70;;
151;SDS011;68;48.792;9.164;2024-03-06T07:15:34;29.27;;;23.80;;
151;SDS011;68;48.792;9.164;2024-03-06T07:18:01;25.73;;;22.58;;
151;SDS011;68;48.792;9.164;2024-03-06T07:20:28;24.50;;;22.73;;
151;SDS011;68;48.792;9.164;2024-03-06T07:22:56;27.50;;;23.20;;
151;SDS011;68;48.792;9.164;2024-03-06T07:25:23;25.55;;;22.20;;
151;SDS011;68;48.792;9.164;2024-03-06T07:27:50;26.05;;;23.35;;
151;SDS011;68;48.792;9.164;2024-03-06T07:30:18;27.02;;;23.67;;
151;SDS011;68;48.792;9.164;2024-03-06T07:32:45;25.88;;;24.10;;
151;SDS011;68;48.792;9.164;2024-03-06T07:35:12;32.83;;;23.58;;
151;SDS011;68;48.792;9.164;2024-03-06T07:37:39;31.85;;;25.50;;
151;SDS011;68;48.792;9.164;2024-03-06T07:40:07;31.60;;;22.52;;
151;SDS011;68;48.792;9.164;2024-03-06T07:42:34;24.67;;;22.90;;
151;SDS011;68;48.792;9.164;2024-03-06T07:45:03;27.67;;;23.40;;
151;SDS011;68;48.792;9.164;2024-03-06T07:47:31;24.23;;;22.55;;
151;SDS011;68;48.792;9.164;2024-03-06T07:49:58;26.75;;;23.15;;
151;SDS011;68;48.792;9.164;2024-03-06T07:52:25;24.42;;;22.50;;
151;SDS011;68;48.792;9.164;2024-03-06T07:54:51;25.65;;;22.75;;
151;SDS011;68;48.792;9.164;2024-03-06T07:57:18;23.42;;;21.63;;
151;SDS011;68;48.792;9.164;2024-03-06T07:59:46;33.17;;;23.30;;
151;SDS011;68;48.792;9.164;2024-03-06T08:02:14;22.60;;;21.50;;
151;SDS011;68;48.792;9.164;2024-03-06T08:04:42;22.35;;;21.25;;
151;SDS011;68;48.792;9.164;2024-03-06T08:07:09;25.20;;;22.48;;
151;SDS011;68;48.792;9.164;2024-03-06T08:09:36;24.48;;;23.08;;
151;SDS011;68;48.792;9.164;2024-03-06T08:12:03;27.35;;;24.05;;
151;SDS011;68;48.792;9.164;2024-03-06T08:14:30;27.30;;;23.88;;
151;SDS011;68;48.792;9.164;2024-03-06T08:16:57;31.05;;;25.05;;
151;SDS011;68;48.792;9.164;2024-03-06T08:19:23;24.42;;;21.63;;
151;SDS011;68;48.792;9.164;2024-03-06T08:21:52;28.10;;;23.05;;
151;SDS011;68;48.792;9.164;2024-03-06T08:24:19;25.38;;;23.27;;
151;SDS011;68;48.792;9.164;2024-03-06T08:26:46;22.42;;;21.33;;
151;SDS011;68;48.792;9.164;2024-03-06T08:29:14;24.05;;;22.77;;
151;SDS011;68;48.792;9.164;2024-03-06T08:31:40;30.40;;;23.50;;
151;SDS011;68;48.792;9.164;2024-03-06T08:34:07;24.70;;;23.45;;
151;SDS011;68;48.792;9.164;2024-03-06T08:36:34;24.50;;;22.00;;
151;SDS011;68;48.792;9.164;2024-03-06T08:39:02;25.02;;;21.88;;
151;SDS011;68;48.792;9.164;2024-03-06T08:41:30;22.58;;;21.35;;
151;SDS011;68;48.792;9.164;2024-03-06T08:43:57;25.33;;;23.15;;
151;SDS011;68;48.792;9.164;2024-03-06T08:46:24;24.33;;;21.30;;
151;SDS011;68;48.792;9.164;2024-03-06T08:48:51;31.92;;;23.35;;
151;SDS011;68;48.792;9.164;2024-03-06T08:51:17;25.25;;;23.15;;
151;SDS011;68;48.792;9.164;2024-03-06T08:53:46;24.33;;;22.55;;
151;SDS011;68;48.792;9.164;2024-03-06T08:56:15;23.10;;;21.42;;
151;SDS011;68;48.792;9.164;2024-03-06T08:58:41;23.90;;;22.63;;
151;SDS011;68;48.792;9.164;2024-03-06T09:01:08;24.38;;;22.27;;
151;SDS011;68;48.792;9.164;2024-03-06T09:03:35;25.45;;;22.65;;
151;SDS011;68;48.792;9.164;2024-03-06T09:06:02;25.02;;;21.73;;
151;SDS011;68;48.792;9.164;2024-03-06T09:08:29;22.45;;;21.35;;
151;SDS011;68;48.792;9.164;2024-03-06T09:10:56;23.52;;;22.08;;
151;SDS011;68;48.792;9.164;2024-03-06T09:13:25;26.70;;;23.50;;
151;SDS011;68;48.792;9.164;2024-03-06T09:15:52;24.48;;;23.20;;
151;SDS011;68;48.792;9.164;2024-03-06T09:18:18;23.50;;;22.17;;
151;SDS011;68;48.792;9.164;2024-03-06T09:20:46;25.95;;;23.35;;
151;SDS011;68;48.792;9.164;2024-03-06T09:23:12;25.90;;;24.42;;
151;SDS011;68;48.792;9.164;2024-03-06T09:25:40;28.27;;;23.98;;
151;SDS011;68;48.792;9.164;2024-03-06T09:28:07;26.52;;;23.08;;
151;SDS011;68;48.792;9.164;2024-03-06T09:30:35;25.77;;;24.45;;
151;SDS011;68;48.792;9.164;2024-03-06T09:33:02;28.67;;;24.35;;
151;SDS011;68;48.792;9.164;2024-03-06T09:35:29;26.13;;;23.52;;
151;SDS011;68;48.792;9.164;2024-03-06T09:37:57;23.98;;;22.77;;
151;SDS011;68;48.792;9.164;2024-03-06T09:40:26;26.42;;;25.10;;
151;SDS011;68;48.792;9.164;2024-03-06T09:42:54;28.15;;;25.48;;
151;SDS011;68;48.792;9.164;2024-03-06T09:45:21;24.88;;;23.48;;
151;SDS011;68;48.792;9.164;2024-03-06T09:47:50;28.05;;;24.75;;
151;SDS011;68;48.792;9.164;2024-03-06T09:50:17;26.42;;;25.02;;
151;SDS011;68;48.792;9.164;2024-03-06T09:52:49;30.17;;;24.95;;
151;SDS011;68;48.792;9.164;2024-03-06T09:55:17;30.88;;;26.02;;
151;SDS011;68;48.792;9.164;2024-03-06T09:57:44;28.90;;;26.05;;
151;SDS011;68;48.792;9.164;2024-03-06T10:00:11;27.60;;;26.20;;
151;SDS011;68;48.792;9.164;2024-03-06T10:02:39;33.97;;;28.25;;
151;SDS011;68;48.792;9.164;2024-03-06T10:05:22;29.75;;;28.23;;
151;SDS011;68;48.792;9.164;2024-03-06T10:07:50;33.58;;;28.50;;
151;SDS011;68;48.792;9.164;2024-03-06T10:10:18;31.80;;;29.52;;
151;SDS011;68;48.792;9.164;2024-03-06T10:12:45;27.92;;;26.52;;
151;SDS011;68;48.792;9.164;2024-03-06T10:15:13;30.95;;;29.35;;
151;SDS011;68;48.792;9.164;2024-03-06T10:17:39;35.97;;;30.77;;
151;SDS011;68;48.792;9.164;2024-03-06T10:20:16;32.08;;;30.48;;
151;SDS011;68;48.792;9.164;2024-03-06T10:22:50;37.25;;;32.08;;
151;SDS011;68;48.792;9.164;2024-03-06T10:25:18;29.75;;;28.25;;
151;SDS011;68;48.792;9.164;2024-03-06T10:27:47;36.97;;;31.88;;
151;SDS011;68;48.792;9.164;2024-03-06T10:30:28;34.70;;;32.25;;
151;SDS011;68;48.792;9.164;2024-03-06T10:32:55;35.30;;;32.63;;
151;SDS011;68;48.792;9.164;2024-03-06T10:35:23;36.63;;;32.83;;
151;SDS011;68;48.792;9.164;2024-03-06T10:37:52;33.70;;;32.00;;
151;SDS011;68;48.792;9.164;2024-03-06T10:40:20;35.65;;;32.60;;
151;SDS011;68;48.792;9.164;2024-03-06T10:42:49;38.63;;;35.78;;
151;SDS011;68;48.792;9.164;2024-03-06T10:45:16;36.50;;;34.38;;
151;SDS011;68;48.792;9.164;2024-03-06T10:47:46;44.20;;;38.75;;
151;SDS011;68;48.792;9.164;2024-03-06T10:50:14;41.20;;;37.38;;
151;SDS011;68;48.792;9.164;2024-03-06T10:52:41;46.50;;;39.60;;
151;SDS011;68;48.792;9.164;2024-03-06T10:55:13;47.58;;;41.65;;
151;SDS011;68;48.792;9.164;2024-03-06T10:57:41;43.70;;;39.42;;
151;SDS011;68;48.792;9.164;2024-03-06T11:00:09;43.50;;;37.90;;
151;SDS011;68;48.792;9.164;2024-03-06T11:02:41;55.75;;;44.00;;
151;SDS011;68;48.792;9.164;2024-03-06T11:05:08;52.78;;;42.83;;
151;SDS011;68;48.792;9.164;2024-03-06T11:07:36;50.97;;;44.70;;
151;SDS011;68;48.792;9.164;2024-03-06T11:10:03;50.15;;;43.53;;
151;SDS011;68;48.792;9.164;2024-03-06T11:12:36;53.67;;;45.92;;
151;SDS011;68;48.792;9.164;2024-03-06T11:15:10;52.95;;;43.80;;
151;SDS011;68;48.792;9.164;2024-03-06T11:17:40;52.50;;;43.40;;
151;SDS011;68;48.792;9.164;2024-03-06T11:20:15;55.97;;;46.38;;
151;SDS011;68;48.792;9.164;2024-03-06T11:23:02;53.03;;;44.90;;
151;SDS011;68;48.792;9.164;2024-03-06T11:28:29;49.85;;;42.15;;
151;SDS011;68;48.792;9.164;2024-03-06T11:30:57;55.78;;;47.88;;
151;SDS011;68;48.792;9.164;2024-03-06T11:33:35;50.78;;;45.60;;
151;SDS011;68;48.792;9.164;2024-03-06T11:36:16;54.28;;;45.97;;
151;SDS011;68;48.792;9.164;2024-03-06T11:38:50;53.45;;;46.13;;
151;SDS011;68;48.792;9.164;2024-03-06T11:41:19;60.53;;;48.38;;
151;SDS011;68;48.792;9.164;2024-03-06T11:43:47;62.70;;;50.10;;
151;SDS011;68;48.792;9.164;2024-03-06T11:46:18;65.20;;;49.50;;
151;SDS011;68;48.792;9.164;2024-03-06T11:48:51;62.00;;;51.00;;
151;SDS011;68;48.792;9.164;2024-03-06T11:51:19;65.78;;;52.50;;
151;SDS011;68;48.792;9.164;2024-03-06T11:53:48;65.13;;;49.83;;
151;SDS011;68;48.792;9.164;2024-03-06T11:56:16;67.15;;;52.88;;
151;SDS011;68;48.792;9.164;2024-03-06T11:58:43;68.47;;;51.33;;
151;SDS011;68;48.792;9.164;2024-03-06T12:01:12;66.20;;;53.40;;
151;SDS011;68;48.792;9.164;2024-03-06T12:03:39;63.13;;;51.55;;
151;SDS011;68;48.792;9.164;2024-03-06T12:06:07;71.93;;;53.53;;
151;SDS011;68;48.792;9.164;2024-03-06T12:08:34;67.38;;;51.60;;
151;SDS011;68;48.792;9.164;2024-03-06T12:11:02;67.68;;;52.53;;
151;SDS011;68;48.792;9.164;2024-03-06T12:13:29;71.20;;;55.00;;
151;SDS011;68;48.792;9.164;2024-03-06T12:15:56;66.70;;;52.63;;
151;SDS011;68;48.792;9.164;2024-03-06T12:18:24;64.10;;;52.83;;
151;SDS011;68;48.792;9.164;2024-03-06T12:20:51;78.75;;;58.65;;
151;SDS011;68;48.792;9.164;2024-03-06T12:23:19;67.32;;;54.03;;
151;SDS011;68;48.792;9.164;2024-03-06T12:25:48;71.38;;;53.13;;
151;SDS011;68;48.792;9.164;2024-03-06T12:28:15;70.47;;;53.70;;
151;SDS011;68;48.792;9.164;2024-03-06T12:30:43;69.15;;;52.63;;
151;SDS011;68;48.792;9.164;2024-03-06T12:33:10;66.70;;;53.65;;
151;SDS011;68;48.792;9.164;2024-03-06T12:35:43;66.28;;;51.70;;
151;SDS011;68;48.792;9.164;2024-03-06T12:38:13;68.97;;;55.03;;
151;SDS011;68;48.792;9.164;2024-03-06T12:40:40;66.43;;;52.80;;
151;SDS011;68;48.792;9.164;2024-03-06T12:43:07;71.20;;;54.30;;
151;SDS011;68;48.792;9.164;2024-03-06T12:45:34;63.90;;;51.55;;
151;SDS011;68;48.792;9.164;2024-03-06T12:48:02;65.70;;;53.50;;
151;SDS011;68;48.792;9.164;2024-03-06T12:50:29;54.65;;;43.88;;
151;SDS011;68;48.792;9.164;2024-03-06T12:52:58;71.88;;;55.03;;
151;SDS011;68;48.792;9.164;2024-03-06T12:55:24;80.57;;;54.67;;
151;SDS011;68;48.792;9.164;2024-03-06T12:57:51;64.57;;;52.10;;
151;SDS011;68;48.792;9.164;2024-03-06T13:00:18;69.57;;;54.50;;
151;SDS011;68;48.792;9.164;2024-03-06T13:02:45;66.45;;;53.15;;
151;SDS011;68;48.792;9.164;2024-03-06T13:05:12;79.13;;;58.40;;
151;SDS011;68;48.792;9.164;2024-03-06T13:07:39;67.68;;;52.65;;
151;SDS011;68;48.792;9.164;2024-03-06T13:10:09;72.18;;;55.60;;
151;SDS011;68;48.792;9.164;2024-03-06T13:12:36;69.93;;;54.05;;
151;SDS011;68;48.792;9.164;2024-03-06T13:15:04;72.07;;;54.47;;
151;SDS011;68;48.792;9.164;2024-03-06T13:17:32;67.43;;;54.13;;
151;SDS011;68;48.792;9.164;2024-03-06T13:19:59;69.82;;;55.00;;
151;SDS011;68;48.792;9.164;2024-03-06T13:22:26;66.82;;;51.92;;
151;SDS011;68;48.792;9.164;2024-03-06T13:24:52;59.40;;;47.92;;
151;SDS011;68;48.792;9.164;2024-03-06T13:27:21;60.40;;;49.47;;
151;SDS011;68;48.792;9.164;2024-03-06T13:29:47;62.88;;;50.47;;
151;SDS011;68;48.792;9.164;2024-03-06T13:32:13;59.70;;;49.20;;
151;SDS011;68;48.792;9.164;2024-03-06T13:34:41;61.03;;;49.30;;
151;SDS011;68;48.792;9.164;2024-03-06T13:37:08;53.20;;;45.83;;
151;SDS011;68;48.792;9.164;2024-03-06T13:39:36;59.15;;;48.97;;
151;SDS011;68;48.792;9.164;2024-03-06T13:42:04;54.80;;;45.28;;
151;SDS011;68;48.792;9.164;2024-03-06T13:44:34;61.95;;;49.88;;
151;SDS011;68;48.792;9.164;2024-03-06T13:47:01;54.92;;;46.17;;
151;SDS011;68;48.792;9.164;2024-03-06T13:49:35;57.80;;;46.83;;
151;SDS011;68;48.792;9.164;2024-03-06T13:52:03;63.28;;;50.30;;
151;SDS011;68;48.792;9.164;2024-03-06T13:54:32;57.42;;;48.40;;
151;SDS011;68;48.792;9.164;2024-03-06T13:56:58;60.08;;;48.80;;
151;SDS011;68;48.792;9.164;2024-03-06T13:59:27;60.58;;;49.45;;
151;SDS011;68;48.792;9.164;2024-03-06T14:01:56;58.83;;;48.50;;
151;SDS011;68;48.792;9.164;2024-03-06T14:04:24;66.80;;;50.15;;
151;SDS011;68;48.792;9.164;2024-03-06T14:06:51;65.75;;;52.03;;
151;SDS011;68;48.792;9.164;2024-03-06T14:09:18;70.68;;;52.95;;
151;SDS011;68;48.792;9.164;2024-03-06T14:11:45;67.13;;;53.17;;
151;SDS011;68;48.792;9.164;2024-03-06T14:14:11;60.72;;;49.35;;
151;SDS011;68;48.792;9.164;2024-03-06T14:16:39;61.92;;;50.60;;
151;SDS011;68;48.792;9.164;2024-03-06T14:19:07;65.88;;;52.45;;
151;SDS011;68;48.792;9.164;2024-03-06T14:21:34;64.95;;;52.53;;
151;SDS011;68;48.792;9.164;2024-03-06T14:24:01;61.03;;;51.33;;
151;SDS011;68;48.792;9.164;2024-03-06T14:26:29;64.65;;;52.35;;
151;SDS011;68;48.792;9.164;2024-03-06T14:28:56;72.72;;;57.15;;
151;SDS011;68;48.792;9.164;2024-03-06T14:31:23;76.22;;;58.63;;
151;SDS011;68;48.792;9.164;2024-03-06T14:33:50;73.43;;;57.35;;
151;SDS011;68;48.792;9.164;2024-03-06T14:36:18;69.55;;;56.00;;
151;SDS011;68;48.792;9.164;2024-03-06T14:38:46;69.88;;;55.50;;
151;SDS011;68;48.792;9.164;2024-03-06T14:41:13;72.75;;;55.10;;
151;SDS011;68;48.792;9.164;2024-03-06T14:43:40;70.63;;;53.83;;
151;SDS011;68;48.792;9.164;2024-03-06T14:46:07;75.60;;;56.97;;
151;SDS011;68;48.792;9.164;2024-03-06T14:48:34;77.45;;;59.17;;
151;SDS011;68;48.792;9.164;2024-03-06T14:51:01;76.95;;;57.58;;
151;SDS011;68;48.792;9.164;2024-03-06T14:53:29;78.00;;;56.85;;
151;SDS011;68;48.792;9.164;2024-03-06T14:55:56;66.30;;;51.92;;
151;SDS011;68;48.792;9.164;2024-03-06T14:58:23;71.70;;;53.15;;
151;SDS011;68;48.792;9.164;2024-03-06T15:00:50;62.75;;;50.90;;
151;SDS011;68;48.792;9.164;2024-03-06T15:03:17;69.30;;;53.00;;
151;SDS011;68;48.792;9.164;2024-03-06T15:05:44;66.63;;;52.67;;
151;SDS011;68;48.792;9.164;2024-03-06T15:08:10;71.25;;;52.92;;
151;SDS011;68;48.792;9.164;2024-03-06T15:10:39;73.68;;;53.83;;
151;SDS011;68;48.792;9.164;2024-03-06T15:13:06;72.45;;;55.10;;
151;SDS011;68;48.792;9.164;2024-03-06T15:15:35;60.63;;;48.80;;
151;SDS011;68;48.792;9.164;2024-03-06T15:18:02;68.57;;;52.67;;
151;SDS011;68;48.792;9.164;2024-03-06T15:20:30;71.13;;;52.83;;
151;SDS011;68;48.792;9.164;2024-03-06T15:22:58;71.90;;;52.75;;
151;SDS011;68;48.792;9.164;2024-03-06T15:25:25;66.20;;;51.75;;
151;SDS011;68;48.792;9.164;2024-03-06T15:27:53;64.13;;;49.35;;
151;SDS011;68;48.792;9.164;2024-03-06T15:30:28;77.28;;;53.10;;
151;SDS011;68;48.792;9.164;2024-03-06T15:32:57;80.05;;;56.05;;
151;SDS011;68;48.792;9.164;2024-03-06T15:35:23;82.20;;;56.38;;